Flight Track Log - Related Links

Times and Time Zones

All times are in EST time to prevent confusion due to time zone crossing. See the EJA396 flight status page for this flight to view local times or setup timezone preferences in your user account.

Time Position Orientation Groundspeed Altitude Reporting Facility
EST Latitude Longitude Course Direction KTS MPH feet Rate Location/Type
Mon 03:24:14 PM 36.1000 -86.6833 270° West 138 159 1,400  Level Nashville TRACON
Mon 03:25:08 PM 36.1000 -86.7333 270° West 219 252 4,800 4,196 Climbing Nashville TRACON
Mon 03:26:37 PM 36.1428 -86.8114 304° West 253 291 11,400 4,291 Climbing Memphis Center
Mon 03:27:39 PM 36.2231 -86.7542 30° Northeast 315 362 15,600 3,871 Climbing Memphis Center
Mon 03:28:41 PM 36.3175 -86.6886 29° Northeast 345 397 19,400 3,387 Climbing Memphis Center
Mon 03:29:43 PM 36.4078 -86.6250 30° Northeast 366 421 22,600 3,000 Climbing Memphis Center
Mon 03:30:45 PM 36.5042 -86.5569 30° Northeast 389 448 25,600 2,855 Climbing Memphis Center
Mon 03:31:47 PM 36.6036 -86.4858 30° Northeast 402 463 28,500 2,516 Climbing Memphis Center
Mon 03:32:49 PM 36.7042 -86.4142 30° Northeast 410 472 30,800 2,274 Climbing Memphis Center
Mon 03:33:51 PM 36.8347 -86.3442 23° Northeast 429 494 33,200 2,016 Climbing Memphis Center
Mon 03:34:54 PM 36.9475 -86.2869 22° Northeast 431 496 35,000 864 Climbing Indianapolis Center
Mon 03:35:56 PM 37.0653 -86.2281 22° Northeast 445 512 35,000  Level Indianapolis Center
Mon 03:36:58 PM 37.1900 -86.1656 22° Northeast 470 541 35,000  Level Indianapolis Center
Mon 03:38:00 PM 37.3092 -86.0947 25° Northeast 469 540 35,000  Level Indianapolis Center
Mon 03:39:02 PM 37.4036 -85.9731 46° Northeast 501 577 35,000  Level Indianapolis Center
Mon 03:40:04 PM 37.5117 -85.8381 45° Northeast 492 566 35,000  Level Indianapolis Center
Mon 03:41:06 PM 37.6106 -85.7164 44° Northeast 495 570 35,000  Level Indianapolis Center
Mon 03:42:08 PM 37.7089 -85.5942 44° Northeast 496 571 35,000  Level Indianapolis Center
Mon 03:43:10 PM 37.8192 -85.4564 45° Northeast 493 567 35,000  Level Indianapolis Center
Mon 03:44:12 PM 37.9042 -85.3492 45° Northeast 495 570 35,000  Level Indianapolis Center
Mon 03:45:14 PM 38.0036 -85.2258 44° Northeast 499 574 35,000  Level Indianapolis Center
Mon 03:46:15 PM 38.1144 -85.0844 45° Northeast 495 570 35,000  Level Indianapolis Center
Mon 03:47:17 PM 38.2125 -84.9600 45° Northeast 497 572 35,000  Level Indianapolis Center
Mon 03:48:19 PM 38.3119 -84.8333 45° Northeast 500 575 35,000  Level Indianapolis Center
Mon 03:49:21 PM 38.4258 -84.6867 45° Northeast 498 573 35,000  Level Indianapolis Center
Mon 03:50:23 PM 38.5247 -84.5619 45° Northeast 499 574 35,000  Level Indianapolis Center
Mon 03:51:25 PM 38.6231 -84.4333 46° Northeast 502 578 35,000  Level Indianapolis Center
Mon 03:52:27 PM 38.7100 -84.3222 45° Northeast 502 578 35,000  Level Indianapolis Center
Mon 03:53:29 PM 38.8272 -84.1697 45° Northeast 502 578 35,000  Level Indianapolis Center
Mon 03:54:31 PM 38.9244 -84.0406 46° Northeast 504 580 35,000 -581 Level Indianapolis Center
Mon 03:55:33 PM 39.0222 -83.9147 45° Northeast 501 577 33,800 -1,839 Descending Indianapolis Center
Mon 03:56:35 PM 39.1161 -83.7897 46° Northeast 493 567 31,200 -2,341 Descending Indianapolis Center
Mon 03:57:36 PM 39.2092 -83.6686 45° Northeast 483 556 29,000 -1,366 Descending Indianapolis Center
Mon 03:58:38 PM 39.3008 -83.5478 46° Northeast 475 547 28,400 -1,452 Descending Indianapolis Center
Mon 03:59:40 PM 39.4119 -83.3986 46° Northeast 481 554 26,000 -2,081 Descending Indianapolis Center
Mon 04:00:42 PM 39.4994 -83.2822 46° Northeast 463 533 24,100 -968 Descending Indianapolis Center
Mon 04:01:44 PM 39.5839 -83.1681 46° Northeast 448 516 24,000 -48 Descending Indianapolis Center
Mon 04:02:46 PM 39.6717 -83.0522 45° Northeast 454 522 24,000  Level Indianapolis Center
Mon 04:03:48 PM 39.7569 -82.9353 46° Northeast 452 520 24,000  Level Indianapolis Center
Mon 04:04:50 PM 39.8631 -82.7914 46° Northeast 462 532 24,000 -293 Level Indianapolis Center
Mon 04:05:51 PM 39.9506 -82.6708 47° Northeast 462 532 23,400 -1,073 Descending Indianapolis Center
Mon 04:06:53 PM 40.0364 -82.5553 46° Northeast 449 517 21,800 -1,597 Descending Indianapolis Center
Mon 04:07:55 PM 40.1181 -82.4425 47° Northeast 433 498 20,100 -1,645 Descending Indianapolis Center
Mon 04:08:57 PM 40.1989 -82.3303 47° Northeast 427 491 18,400 -1,645 Descending Indianapolis Center
Mon 04:09:59 PM 40.2811 -82.2167 46° Northeast 417 480 16,700 -1,694 Descending Indianapolis Center
Mon 04:11:01 PM 40.3678 -82.0950 47° Northeast 389 448 14,900 -1,645 Descending Indianapolis Center
Mon 04:12:03 PM 40.4414 -81.9925 47° Northeast 384 442 13,300 -1,463 Descending Indianapolis Center
Mon 04:13:04 PM 40.5156 -81.8992 44° Northeast 371 427 11,900 -1,317 Descending Indianapolis Center
Mon 04:14:06 PM 40.5917 -81.8233 37° Northeast 344 396 10,600 -1,355 Descending Indianapolis Center
Mon 04:15:08 PM 40.6586 -81.7578 37° Northeast 303 349 9,100 -1,742 Descending Indianapolis Center
Mon 04:16:10 PM 40.7278 -81.7050 30° Northeast 289 333 7,000 -1,887 Descending Indianapolis Center
Mon 04:17:12 PM 40.7978 -81.6600 26° Northeast 283 326 5,200 -1,065 Descending Indianapolis Center
Mon 04:18:14 PM 40.8667 -81.6167 25° Northeast 277 319 4,800 -1,024 Descending Indianapolis Center
Mon 04:19:15 PM 40.9325 -81.5419 41° Northeast 267 307 3,100 -829 Descending Indianapolis Center
Mon 04:20:17 PM 40.9778 -81.4914 40° Northeast 234 269 3,100 -145 Level Indianapolis Center
Mon 04:21:19 PM 40.9742 -81.4394 95° East 180 207 2,800 -435 Descending Indianapolis Center
Mon 04:22:21 PM 40.9500 -81.4108 138° Southeast 141 162 2,200 -629 Descending Indianapolis Center
Mon 04:23:23 PM 40.9242 -81.4278 206° Southwest 119 137 1,500 -677 Descending Indianapolis Center

Login

Don't have an account? Register now (free) for customized features, flight alerts, and more!